createdAt,value
2018-12-24T00:00:43.912Z,101692.59
2018-12-24T00:03:48.242Z,101695.66
2018-12-24T00:06:52.540Z,101709.49
2018-12-24T00:09:57.139Z,101714.53
2018-12-24T00:13:01.686Z,101714.50
2018-12-24T00:16:06.004Z,101722.63
2018-12-24T00:19:12.388Z,101726.86
2018-12-24T00:22:16.890Z,101732.11
2018-12-24T00:25:21.423Z,101738.84
2018-12-24T00:28:25.758Z,101749.55
2018-12-24T00:31:30.493Z,101753.89
2018-12-24T00:34:34.794Z,101756.40
2018-12-24T00:37:39.339Z,101764.10
2018-12-24T00:40:43.683Z,101769.52
2018-12-24T00:43:47.966Z,101775.38
2018-12-24T00:46:52.229Z,101779.70
2018-12-24T00:49:56.581Z,101786.16
2018-12-24T00:53:00.923Z,101789.17
2018-12-24T00:56:07.442Z,101792.34
2018-12-24T00:59:11.819Z,101791.29
2018-12-24T01:02:16.167Z,101791.28
2018-12-24T01:05:20.453Z,101794.38
2018-12-24T01:08:24.738Z,101795.50
2018-12-24T01:11:29.095Z,101799.64
2018-12-24T01:14:33.380Z,101807.43
2018-12-24T01:17:37.681Z,101808.69
2018-12-24T01:20:42.019Z,101817.81
2018-12-24T01:23:46.300Z,101818.82
2018-12-24T01:26:50.633Z,101824.30
2018-12-24T01:29:54.890Z,101834.03
2018-12-24T01:32:59.171Z,101836.89
2018-12-24T01:36:03.461Z,101843.14
2018-12-24T01:39:08.323Z,101855.73
2018-12-24T01:42:12.669Z,101857.31
2018-12-24T01:45:17.211Z,101863.67
2018-12-24T01:48:21.472Z,101873.52
2018-12-24T01:51:26.815Z,101878.52
2018-12-24T01:54:31.111Z,101883.95
2018-12-24T01:57:35.381Z,101900.83
2018-12-24T02:00:39.727Z,101903.45
2018-12-24T02:03:44.073Z,101913.17
2018-12-24T02:06:48.339Z,101915.80
2018-12-24T02:09:52.602Z,101923.23
2018-12-24T02:12:56.871Z,101921.53
2018-12-24T02:16:01.150Z,101921.14
2018-12-24T02:19:05.475Z,101925.76
2018-12-24T02:22:12.905Z,101934.33
2018-12-24T02:25:51.553Z,101934.56
2018-12-24T02:28:55.388Z,101943.20
2018-12-24T02:31:59.239Z,101942.02
2018-12-24T02:35:03.221Z,101942.05
2018-12-24T02:38:07.073Z,101955.29
2018-12-24T02:41:12.311Z,101961.88
2018-12-24T02:44:16.178Z,101971.17
2018-12-24T02:47:20.086Z,101976.13
2018-12-24T02:50:23.956Z,101978.23
2018-12-24T02:53:27.872Z,101982.30
2018-12-24T02:56:31.771Z,101977.66
2018-12-24T02:59:35.699Z,101991.48
2018-12-24T03:02:39.524Z,101997.05
2018-12-24T03:05:43.386Z,101993.05
2018-12-24T03:08:47.230Z,101998.66
2018-12-24T03:11:51.082Z,102003.23
2018-12-24T03:14:55.006Z,102007.66
2018-12-24T03:17:58.839Z,102009.73
2018-12-24T03:21:02.681Z,102018.86
2018-12-24T03:24:06.535Z,102018.18
2018-12-24T03:27:10.373Z,102011.31
2018-12-24T03:30:14.216Z,102017.14
2018-12-24T03:33:18.055Z,102021.05
2018-12-24T03:36:21.895Z,102019.80
2018-12-24T03:39:25.726Z,102026.06
2018-12-24T03:42:29.567Z,102030.81
2018-12-24T03:45:33.444Z,102030.27
2018-12-24T03:48:37.288Z,102039.21
2018-12-24T03:51:41.123Z,102049.84
2018-12-24T03:54:44.972Z,102059.64
2018-12-24T03:57:48.847Z,102061.96
2018-12-24T04:00:52.685Z,102074.08
2018-12-24T04:03:56.576Z,102081.09
2018-12-24T04:07:00.407Z,102086.63
2018-12-24T04:10:04.393Z,102095.63
2018-12-24T04:13:08.224Z,102100.29
2018-12-24T04:16:12.144Z,102101.89
2018-12-24T04:19:15.997Z,102102.25
2018-12-24T04:22:20.011Z,102101.23
2018-12-24T04:25:23.930Z,102117.30
2018-12-24T04:28:27.930Z,102121.96
2018-12-24T04:31:31.781Z,102129.28
2018-12-24T04:34:35.655Z,102127.56
2018-12-24T04:37:39.945Z,102130.55
2018-12-24T04:40:45.727Z,102141.64
2018-12-24T04:43:49.665Z,102144.47
2018-12-24T04:46:53.515Z,102154.05
2018-12-24T04:49:57.355Z,102159.00
2018-12-24T04:53:01.220Z,102172.27
2018-12-24T04:56:05.074Z,102181.31
2018-12-24T04:59:08.950Z,102183.11
2018-12-24T05:02:12.849Z,102194.45
2018-12-24T05:05:16.668Z,102198.13
2018-12-24T05:08:21.787Z,102207.62
2018-12-24T05:11:25.636Z,102211.39
2018-12-24T05:14:29.473Z,102223.44
2018-12-24T05:17:33.319Z,102222.40
2018-12-24T05:20:37.144Z,102219.26
2018-12-24T05:23:40.989Z,102231.34
2018-12-24T05:26:44.865Z,102242.36
2018-12-24T05:29:48.811Z,102239.33
2018-12-24T05:32:52.616Z,102244.03
2018-12-24T05:35:56.566Z,102249.23
2018-12-24T05:39:00.410Z,102247.92
2018-12-24T05:42:04.433Z,102249.39
2018-12-24T05:45:08.266Z,102252.30
2018-12-24T05:48:12.101Z,102257.33
2018-12-24T05:51:15.998Z,102271.07
2018-12-24T05:54:19.867Z,102277.13
2018-12-24T05:57:23.703Z,102284.98
2018-12-24T06:00:30.843Z,102290.01
2018-12-24T06:03:34.702Z,102301.63
2018-12-24T06:06:38.710Z,102301.67
2018-12-24T06:09:42.550Z,102316.88
2018-12-24T06:12:48.250Z,102326.82
2018-12-24T06:15:52.189Z,102339.65
2018-12-24T06:18:56.035Z,102361.81
2018-12-24T06:22:00.031Z,102370.53
2018-12-24T06:25:03.960Z,102365.83
2018-12-24T06:28:07.806Z,102371.12
2018-12-24T06:31:11.723Z,102379.97
2018-12-24T06:34:15.558Z,102384.53
2018-12-24T06:37:19.506Z,102393.43
2018-12-24T06:40:23.328Z,102400.11
2018-12-24T06:43:27.208Z,102415.88
2018-12-24T06:46:31.069Z,102413.93
2018-12-24T06:49:35.079Z,102408.24
2018-12-24T06:52:40.506Z,102410.73
2018-12-24T06:55:44.350Z,102406.89
2018-12-24T06:58:48.314Z,102414.30
2018-12-24T07:01:52.146Z,102420.00
2018-12-24T07:04:56.031Z,102413.48
2018-12-24T07:08:00.196Z,102420.31
2018-12-24T07:11:04.142Z,102425.04
2018-12-24T07:14:15.238Z,102433.67
2018-12-24T07:17:13.682Z,102441.71
2018-12-24T07:20:17.608Z,102450.28
2018-12-24T07:23:21.508Z,102455.20
2018-12-24T07:26:25.438Z,102461.92
2018-12-24T07:29:29.410Z,102462.77
2018-12-24T07:32:33.340Z,102473.66
2018-12-24T07:35:37.267Z,102469.42
2018-12-24T07:38:41.157Z,102477.00
2018-12-24T07:41:45.570Z,102477.48
2018-12-24T07:44:49.440Z,102479.21
2018-12-24T07:47:53.312Z,102487.48
2018-12-24T07:50:57.195Z,102498.60
2018-12-24T07:54:03.434Z,102500.05
2018-12-24T07:57:07.276Z,102507.18
2018-12-24T08:00:11.115Z,102509.34
2018-12-24T08:03:16.239Z,102502.98
2018-12-24T08:06:20.075Z,102491.28
2018-12-24T08:09:24.050Z,102502.17
2018-12-24T08:12:27.920Z,102498.07
2018-12-24T08:15:31.920Z,102507.15
2018-12-24T08:18:39.381Z,102504.94
2018-12-24T08:21:43.316Z,102511.84
2018-12-24T08:24:48.231Z,102520.53
2018-12-24T08:27:52.160Z,102524.57
2018-12-24T08:30:56.000Z,102526.55
2018-12-24T08:33:59.934Z,102529.81
2018-12-24T08:37:06.211Z,102529.81
2018-12-24T08:40:10.122Z,102527.55
2018-12-24T08:43:13.972Z,102534.23
2018-12-24T08:46:17.807Z,102532.99
2018-12-24T08:49:21.687Z,102520.66
2018-12-24T08:52:25.630Z,102526.01
2018-12-24T08:55:29.627Z,102525.65
2018-12-24T08:58:33.474Z,102539.06
2018-12-24T09:01:37.405Z,102532.56
2018-12-24T09:04:41.283Z,102539.75
2018-12-24T09:07:45.107Z,102541.06
2018-12-24T09:10:51.088Z,102549.56
2018-12-24T09:13:54.990Z,102559.37
2018-12-24T09:16:58.910Z,102556.75
2018-12-24T09:20:03.311Z,102553.36
2018-12-24T09:23:07.304Z,102560.55
2018-12-24T09:26:11.264Z,102563.00
2018-12-24T09:29:15.117Z,102578.63
2018-12-24T09:32:19.048Z,102575.20
2018-12-24T09:35:23.066Z,102572.84
2018-12-24T09:38:26.922Z,102566.98
2018-12-24T09:41:34.047Z,102559.78
2018-12-24T09:44:37.953Z,102567.88
2018-12-24T09:47:41.798Z,102568.81
2018-12-24T09:50:45.624Z,102571.39
2018-12-24T09:53:49.495Z,102582.57
2018-12-24T09:56:53.526Z,102587.31
2018-12-24T09:59:57.580Z,102588.34
2018-12-24T10:03:18.677Z,102581.70
2018-12-24T10:06:30.337Z,102573.47
2018-12-24T10:09:34.262Z,102579.42
2018-12-24T10:12:38.788Z,102586.11
2018-12-24T10:15:44.766Z,102582.91
2018-12-24T10:18:50.865Z,102584.31
2018-12-24T10:21:55.235Z,102578.55
2018-12-24T10:24:59.112Z,102569.17
2018-12-24T10:28:04.002Z,102566.61
2018-12-24T10:31:07.936Z,102569.80
2018-12-24T10:34:12.899Z,102579.20
2018-12-24T10:37:16.908Z,102577.21
2018-12-24T10:40:20.833Z,102580.49
2018-12-24T10:43:24.761Z,102575.66
2018-12-24T10:46:28.811Z,102570.07
2018-12-24T10:49:32.817Z,102570.69
2018-12-24T10:52:36.682Z,102577.12
2018-12-24T10:55:40.538Z,102581.77
2018-12-24T10:58:44.469Z,102568.76
2018-12-24T11:01:48.325Z,102574.05
2018-12-24T11:04:52.210Z,102568.14
2018-12-24T11:07:56.079Z,102574.41
2018-12-24T11:10:59.957Z,102582.09
2018-12-24T11:14:03.941Z,102568.12
2018-12-24T11:17:08.356Z,102571.92
2018-12-24T11:20:12.357Z,102567.94
2018-12-24T11:23:16.302Z,102571.69
2018-12-24T11:26:20.232Z,102573.36
2018-12-24T11:29:24.152Z,102566.22
2018-12-24T11:32:28.081Z,102561.20
2018-12-24T11:35:32.023Z,102560.94
2018-12-24T11:38:35.881Z,102564.54
2018-12-24T11:41:39.824Z,102558.08
2018-12-24T11:44:44.248Z,102550.42
2018-12-24T11:47:48.111Z,102550.38
2018-12-24T11:50:52.366Z,102555.93
2018-12-24T11:53:56.279Z,102549.21
2018-12-24T11:57:00.135Z,102539.10
2018-12-24T12:00:04.636Z,102548.11
2018-12-24T12:03:10.516Z,102549.61
2018-12-24T12:06:19.714Z,102540.65
2018-12-24T12:09:26.212Z,102544.87
2018-12-24T12:12:30.136Z,102548.44
2018-12-24T12:15:42.354Z,102536.77
2018-12-24T12:18:39.851Z,102533.59
2018-12-24T12:21:44.678Z,102536.02
2018-12-24T12:24:48.524Z,102533.83
2018-12-24T12:27:52.416Z,102528.19
2018-12-24T12:30:56.436Z,102523.92
2018-12-24T12:34:00.574Z,102525.17
2018-12-24T12:37:04.599Z,102527.77
2018-12-24T12:40:08.602Z,102527.36
2018-12-24T12:43:12.458Z,102533.34
2018-12-24T12:46:25.358Z,102529.72
2018-12-24T12:49:29.219Z,102535.34
2018-12-24T12:52:33.089Z,102523.30
2018-12-24T12:55:36.999Z,102522.30
2018-12-24T12:58:40.898Z,102520.75
2018-12-24T13:01:44.811Z,102512.30
2018-12-24T13:04:48.681Z,102520.86
2018-12-24T13:07:52.618Z,102522.50
2018-12-24T13:10:56.494Z,102526.52
2018-12-24T13:14:00.603Z,102521.98
2018-12-24T13:17:04.531Z,102518.33
2018-12-24T13:20:08.574Z,102529.92
2018-12-24T13:23:12.452Z,102526.95
2018-12-24T13:26:16.479Z,102539.23
2018-12-24T13:29:20.362Z,102531.44
2018-12-24T13:32:24.210Z,102539.95
2018-12-24T13:35:28.144Z,102534.03
2018-12-24T13:38:32.252Z,102525.81
2018-12-24T13:41:36.222Z,102528.06
2018-12-24T13:44:40.240Z,102546.84
2018-12-24T13:47:44.149Z,102541.08
2018-12-24T13:54:09.860Z,102541.81
2018-12-24T13:57:13.718Z,102551.94
2018-12-24T14:00:17.662Z,102547.11
2018-12-24T14:03:21.572Z,102546.19
2018-12-24T14:06:25.433Z,102549.22
2018-12-24T14:09:29.274Z,102554.27
2018-12-24T14:12:33.188Z,102560.32
2018-12-24T14:15:37.040Z,102566.89
2018-12-24T14:18:40.887Z,102571.98
2018-12-24T14:21:44.741Z,102580.67
2018-12-24T14:24:48.644Z,102581.48
2018-12-24T14:27:52.495Z,102593.62
2018-12-24T14:30:56.416Z,102599.70
2018-12-24T14:34:00.335Z,102608.41
2018-12-24T14:37:06.723Z,102604.88
2018-12-24T14:40:10.563Z,102603.01
2018-12-24T14:43:14.563Z,102604.30
2018-12-24T14:46:25.624Z,102599.45
2018-12-24T14:49:23.991Z,102606.30
2018-12-24T14:52:27.842Z,102599.70
2018-12-24T14:55:31.853Z,102605.45
2018-12-24T14:58:35.812Z,102613.56
2018-12-24T15:01:39.704Z,102610.73
2018-12-24T15:04:43.565Z,102620.47
2018-12-24T15:07:47.410Z,102633.48
2018-12-24T15:10:51.318Z,102643.19
2018-12-24T15:13:55.171Z,102648.00
2018-12-24T15:16:59.103Z,102654.27
2018-12-24T15:20:03.113Z,102663.13
2018-12-24T15:23:06.972Z,102649.91
2018-12-24T15:26:13.748Z,102656.85
2018-12-24T15:29:17.703Z,102657.27
2018-12-24T15:32:21.542Z,102661.02
2018-12-24T15:35:25.673Z,102662.19
2018-12-24T15:38:29.538Z,102669.47
2018-12-24T15:41:33.397Z,102669.77
2018-12-24T15:44:37.813Z,102660.73
2018-12-24T15:47:41.668Z,102665.62
2018-12-24T15:50:45.598Z,102675.59
2018-12-24T15:53:49.427Z,102676.77
2018-12-24T15:56:53.356Z,102667.21
2018-12-24T15:59:57.204Z,102685.05
2018-12-24T16:03:01.064Z,102682.83
2018-12-24T16:06:04.992Z,102690.36
2018-12-24T16:09:10.952Z,102694.79
2018-12-24T16:12:14.882Z,102692.19
2018-12-24T16:15:18.729Z,102688.02
2018-12-24T16:18:22.580Z,102695.17
2018-12-24T16:21:26.462Z,102688.44
2018-12-24T16:24:32.176Z,102700.81
2018-12-24T16:27:38.594Z,102702.58
2018-12-24T16:30:42.439Z,102705.03
2018-12-24T16:33:46.278Z,102699.91
2018-12-24T16:36:50.117Z,102703.75
2018-12-24T16:39:53.966Z,102696.72
2018-12-24T16:43:01.390Z,102691.18
2018-12-24T16:46:05.286Z,102694.37
2018-12-24T16:49:09.147Z,102696.66
2018-12-24T16:52:13.010Z,102691.81
2018-12-24T16:55:16.880Z,102698.44
2018-12-24T16:58:20.793Z,102690.08
2018-12-24T17:01:24.646Z,102689.98
2018-12-24T17:04:31.795Z,102688.66
2018-12-24T17:07:35.655Z,102691.59
2018-12-24T17:10:39.497Z,102706.64
2018-12-24T17:13:43.509Z,102700.13
2018-12-24T17:16:47.455Z,102707.62
2018-12-24T17:19:51.398Z,102709.66
2018-12-24T17:22:55.263Z,102702.88
2018-12-24T17:26:01.510Z,102700.14
2018-12-24T17:29:07.981Z,102703.95
2018-12-24T17:32:11.965Z,102710.87
2018-12-24T17:35:15.886Z,102707.75
2018-12-24T17:38:19.830Z,102711.39
2018-12-24T17:41:23.752Z,102712.18
2018-12-24T17:44:29.682Z,102716.58
2018-12-24T17:47:33.540Z,102721.81
2018-12-24T17:50:39.460Z,102729.11
2018-12-24T17:53:43.300Z,102735.31
2018-12-24T17:56:47.137Z,102739.11
2018-12-24T17:59:54.613Z,102751.44
2018-12-24T18:02:58.453Z,102745.84
2018-12-24T18:06:03.884Z,102743.59
2018-12-24T18:09:08.518Z,102749.80
2018-12-24T18:12:12.417Z,102758.94
2018-12-24T18:15:16.261Z,102764.77
2018-12-24T18:18:20.292Z,102770.48
2018-12-24T18:21:24.238Z,102778.50
2018-12-24T18:24:28.087Z,102778.87
2018-12-24T18:27:31.967Z,102781.17
2018-12-24T18:30:35.844Z,102778.13
2018-12-24T18:33:41.579Z,102787.79
2018-12-24T18:36:45.424Z,102784.52
2018-12-24T18:39:50.449Z,102777.70
2018-12-24T18:42:54.292Z,102779.47
2018-12-24T18:45:58.211Z,102784.47
2018-12-24T18:49:02.061Z,102790.13
2018-12-24T18:52:05.899Z,102789.14
2018-12-24T18:55:09.726Z,102799.56
2018-12-24T18:58:14.097Z,102796.55
2018-12-24T19:01:18.059Z,102793.66
2018-12-24T19:04:21.923Z,102798.96
2018-12-24T19:07:25.772Z,102804.80
2018-12-24T19:10:29.675Z,102812.63
2018-12-24T19:13:33.594Z,102801.07
2018-12-24T19:16:37.614Z,102802.02
2018-12-24T19:19:44.833Z,102797.88
2018-12-24T19:22:50.560Z,102788.94
2018-12-24T19:25:54.398Z,102789.21
2018-12-24T19:28:58.258Z,102780.06
2018-12-24T19:32:02.180Z,102778.51
2018-12-24T19:35:06.109Z,102785.13
2018-12-24T19:38:10.070Z,102789.91
2018-12-24T19:41:16.856Z,102790.25
2018-12-24T19:44:20.809Z,102801.21
2018-12-24T19:47:24.617Z,102808.33
2018-12-24T19:50:28.473Z,102803.81
2018-12-24T19:53:32.345Z,102798.92
2018-12-24T19:56:36.184Z,102809.08
2018-12-24T19:59:40.104Z,102810.50
2018-12-24T20:02:43.958Z,102813.52
2018-12-24T20:05:49.511Z,102825.75
2018-12-24T20:08:53.440Z,102822.36
2018-12-24T20:12:00.853Z,102819.28
2018-12-24T20:15:04.875Z,102818.11
2018-12-24T20:18:15.449Z,102815.02
2018-12-24T20:21:14.414Z,102803.61
2018-12-24T20:24:18.271Z,102810.62
2018-12-24T20:27:22.138Z,102801.50
2018-12-24T20:30:26.030Z,102808.88
2018-12-24T20:33:31.608Z,102815.78
2018-12-24T20:36:35.455Z,102819.73
2018-12-24T20:39:39.517Z,102817.58
2018-12-24T20:42:43.378Z,102826.43
2018-12-24T20:45:49.717Z,102821.64
2018-12-24T20:48:53.618Z,102821.23
2018-12-24T20:51:58.070Z,102828.12
2018-12-24T20:55:01.934Z,102818.59
2018-12-24T20:58:05.870Z,102816.79
2018-12-24T21:01:09.813Z,102820.47
2018-12-24T21:04:13.678Z,102819.16
2018-12-24T21:07:17.541Z,102816.97
2018-12-24T21:10:21.401Z,102816.90
2018-12-24T21:13:25.409Z,102827.89
2018-12-24T21:16:29.444Z,102829.70
2018-12-24T21:19:33.456Z,102833.54
2018-12-24T21:22:47.553Z,102837.23
2018-12-24T21:25:51.759Z,102837.38
2018-12-24T21:28:55.719Z,102840.80
2018-12-24T21:32:09.799Z,102839.06
2018-12-24T21:35:27.931Z,102838.73
2018-12-24T21:38:42.870Z,102833.11
2018-12-24T21:41:49.598Z,102830.55
2018-12-24T21:44:56.195Z,102834.68
2018-12-24T21:48:00.132Z,102831.18
2018-12-24T21:51:04.077Z,102833.36
2018-12-24T21:54:15.396Z,102832.60
2018-12-24T21:57:30.548Z,102835.23
2018-12-24T22:00:39.955Z,102833.39
2018-12-24T22:03:48.290Z,102830.80
2018-12-24T22:06:52.292Z,102830.80
2018-12-24T22:09:56.239Z,102826.19
2018-12-24T22:13:00.083Z,102829.13
2018-12-24T22:16:04.076Z,102824.52
2018-12-24T22:19:08.018Z,102826.42
2018-12-24T22:22:11.987Z,102822.44
2018-12-24T22:25:17.501Z,102820.21
2018-12-24T22:28:21.351Z,102815.45
2018-12-24T22:31:25.203Z,102806.13
2018-12-24T22:34:29.133Z,102810.70
2018-12-24T22:37:33.043Z,102802.72
2018-12-24T22:40:36.958Z,102800.08
2018-12-24T22:43:43.060Z,102800.43
2018-12-24T22:46:46.985Z,102807.38
2018-12-24T22:49:53.020Z,102803.87
2018-12-24T22:52:56.944Z,102801.72
2018-12-24T22:59:18.093Z,102799.11
2018-12-24T23:02:22.226Z,102790.91
2018-12-24T23:05:26.069Z,102788.83
2018-12-24T23:08:29.902Z,102791.73
2018-12-24T23:11:33.854Z,102787.00
2018-12-24T23:14:37.747Z,102788.51
2018-12-24T23:17:41.725Z,102788.19
2018-12-24T23:20:45.679Z,102786.09
2018-12-24T23:23:49.681Z,102792.17
2018-12-24T23:26:58.763Z,102782.75
2018-12-24T23:30:02.645Z,102794.08
2018-12-24T23:33:06.533Z,102785.39
2018-12-24T23:36:10.380Z,102787.41
2018-12-24T23:39:14.262Z,102777.73
2018-12-24T23:42:18.208Z,102779.97
2018-12-24T23:45:23.362Z,102774.49
2018-12-24T23:48:27.293Z,102770.56
2018-12-24T23:51:31.225Z,102785.56
2018-12-24T23:54:35.100Z,102774.73
2018-12-24T23:57:40.885Z,102769.52
